Time;durP1;ratioP1;P1;durP2;ratioP2;P2;SDS_P1;SDS_P2;PMS_P1;PMS_P2;Temp;Humidity;BMP_temperature;BMP_pressure;BME280_temperature;BME280_humidity;BME280_pressure;Samples;Min_cycle;Max_cycle;Signal;HPM_P1;HPM_P2
2022/08/31 00:05:51;;;;;;;;;;;;;;;;;;5069579;28;20053;-76
2022/08/31 00:08:17;;;;;;;2.50;1.80;;;;;;;;;;5075553;28;19975;-74
2022/08/31 00:10:45;;;;;;;2.13;1.83;;;;;;;;;;5057272;28;20062;-75
2022/08/31 00:13:11;;;;;;;3.75;1.88;;;;;;;;;;5071888;28;20021;-73
2022/08/31 00:15:37;;;;;;;4.50;2.10;;;;;;;;;;5071863;28;20035;-73
2022/08/31 00:18:04;;;;;;;3.05;1.90;;;;;;;;;;5069414;28;20100;-75
2022/08/31 00:20:30;;;;;;;3.08;2.35;;;;;;;;;;5061060;28;20013;-76
2022/08/31 00:22:56;;;;;;;4.88;2.20;;;;;;;;;;5070010;28;20096;-74
2022/08/31 00:25:22;;;;;;;3.20;2.10;;;;;;;;;;5066687;28;20070;-74
2022/08/31 00:27:49;;;;;;;2.78;2.50;;;;;;;;;;5070837;28;20370;-74
2022/08/31 00:30:15;;;;;;;3.83;1.90;;;;;;;;;;5060522;28;20031;-75
2022/08/31 00:32:41;;;;;;;4.18;2.45;;;;;;;;;;5065269;28;20091;-75
2022/08/31 00:35:07;;;;;;;2.33;1.95;;;;;;;;;;5070244;28;20393;-74
2022/08/31 00:37:34;;;;;;;3.15;2.08;;;;;;;;;;5069837;28;20115;-75
2022/08/31 00:40:00;;;;;;;3.40;2.05;;;;;;;;;;5072438;28;20065;-75
2022/08/31 00:42:26;;;;;;;2.75;2.10;;;;;;;;;;5061747;28;20443;-75
2022/08/31 00:44:52;;;;;;;2.25;2.05;;;;;;;;;;5066162;28;20024;-75
2022/08/31 00:47:18;;;;;;;3.05;2.00;;;;;;;;;;5065745;28;20029;-74
2022/08/31 00:49:50;;;;;;;3.97;2.30;;;;;;;;;;5068293;28;20492;-75
2022/08/31 00:52:20;;;;;;;3.97;2.10;;;;;;;;;;5057970;28;20036;-76
2022/08/31 00:54:51;;;;;;;5.05;1.95;;;;;;;;;;5069045;28;20469;-74
2022/08/31 00:57:17;;;;;;;2.47;1.92;;;;;;;;;;5072275;28;20044;-74
2022/08/31 00:59:44;;;;;;;8.35;2.72;;;;;;;;;;5070537;28;20074;-75
2022/08/31 01:02:10;;;;;;;6.28;2.10;;;;;;;;;;5059924;28;20029;-73
2022/08/31 01:04:36;;;;;;;3.55;2.30;;;;;;;;;;5072093;28;20009;-74
2022/08/31 01:07:05;;;;;;;3.20;2.10;;;;;;;;;;5072345;28;20021;-76
2022/08/31 01:09:32;;;;;;;4.30;2.33;;;;;;;;;;5068577;28;20028;-75
2022/08/31 01:11:59;;;;;;;3.40;2.30;;;;;;;;;;5081770;28;20036;-75
2022/08/31 01:14:25;;;;;;;3.15;2.30;;;;;;;;;;5063750;28;20017;-74
2022/08/31 01:16:52;;;;;;;4.28;2.30;;;;;;;;;;5071355;28;20421;-76
2022/08/31 01:19:25;;;;;;;2.10;1.90;;;;;;;;;;5068234;28;20040;-75
2022/08/31 01:21:57;;;;;;;3.83;2.60;;;;;;;;;;5077392;28;20687;-74
2022/08/31 01:24:24;;;;;;;4.18;2.53;;;;;;;;;;5068585;28;20171;-76
2022/08/31 01:26:51;;;;;;;2.80;2.03;;;;;;;;;;5080753;28;20024;-75
2022/08/31 01:29:17;;;;;;;3.10;2.30;;;;;;;;;;5068752;28;20036;-75
2022/08/31 01:31:45;;;;;;;3.83;2.22;;;;;;;;;;5075401;28;20021;-76
2022/08/31 01:34:12;;;;;;;4.28;2.05;;;;;;;;;;5072000;28;20020;-76
2022/08/31 01:36:39;;;;;;;4.40;2.50;;;;;;;;;;5076602;28;20028;-75
2022/08/31 01:39:07;;;;;;;3.40;2.20;;;;;;;;;;5071235;28;20021;-75
2022/08/31 01:41:33;;;;;;;3.83;2.33;;;;;;;;;;5076050;28;20020;-75
2022/08/31 01:43:59;;;;;;;2.95;2.50;;;;;;;;;;5073946;28;20020;-75
2022/08/31 01:46:25;;;;;;;3.13;2.33;;;;;;;;;;5074864;28;20108;-74
2022/08/31 01:48:51;;;;;;;4.40;2.45;;;;;;;;;;5074839;28;20032;-75
2022/08/31 01:51:19;;;;;;;7.57;2.85;;;;;;;;;;5074541;28;20093;-75
2022/08/31 01:53:46;;;;;;;3.47;2.15;;;;;;;;;;5071343;28;20056;-75
2022/08/31 01:56:17;;;;;;;3.90;2.38;;;;;;;;;;5074616;28;20474;-75
2022/08/31 01:58:43;;;;;;;3.10;2.50;;;;;;;;;;5068318;28;20093;-75
2022/08/31 02:01:09;;;;;;;4.03;2.72;;;;;;;;;;5078353;28;20107;-74
2022/08/31 02:03:36;;;;;;;3.95;2.20;;;;;;;;;;5068151;28;20159;-74
2022/08/31 02:06:06;;;;;;;3.50;2.38;;;;;;;;;;5072592;28;20039;-75
2022/08/31 02:08:32;;;;;;;5.03;2.80;;;;;;;;;;5071455;28;20029;-76
2022/08/31 02:10:58;;;;;;;3.42;2.28;;;;;;;;;;5065184;28;20550;-75
2022/08/31 02:13:24;;;;;;;3.10;2.40;;;;;;;;;;5062989;28;20028;-75
2022/08/31 02:15:51;;;;;;;5.95;3.00;;;;;;;;;;5064914;28;20024;-74
2022/08/31 02:18:17;;;;;;;4.00;2.78;;;;;;;;;;5066641;28;20025;-75
2022/08/31 02:20:43;;;;;;;3.92;2.50;;;;;;;;;;5074087;28;20067;-76
2022/08/31 02:23:09;;;;;;;4.63;3.03;;;;;;;;;;5066305;28;20013;-75
2022/08/31 02:25:35;;;;;;;4.40;2.60;;;;;;;;;;5070748;28;20424;-75
2022/08/31 02:28:01;;;;;;;3.67;2.75;;;;;;;;;;5068396;28;20067;-76
2022/08/31 02:30:28;;;;;;;3.95;2.83;;;;;;;;;;5072134;28;20017;-75
2022/08/31 02:32:54;;;;;;;6.38;2.80;;;;;;;;;;5069003;28;20086;-74
2022/08/31 02:35:20;;;;;;;3.13;2.53;;;;;;;;;;5072467;28;20027;-75
2022/08/31 02:37:46;;;;;;;7.18;2.90;;;;;;;;;;5072231;28;20062;-73
2022/08/31 02:40:13;;;;;;;4.20;2.95;;;;;;;;;;5072068;28;20077;-73
2022/08/31 02:42:40;;;;;;;4.20;2.80;;;;;;;;;;5073025;28;20076;-75
2022/08/31 02:45:06;;;;;;;4.18;2.83;;;;;;;;;;5067861;28;20032;-76
2022/08/31 02:47:33;;;;;;;3.67;2.90;;;;;;;;;;5070436;28;20117;-75
2022/08/31 02:50:01;;;;;;;3.80;2.70;;;;;;;;;;5066564;28;20047;-75
2022/08/31 02:52:27;;;;;;;3.67;2.30;;;;;;;;;;5076477;28;20033;-77
2022/08/31 02:54:53;;;;;;;5.45;2.60;;;;;;;;;;5066642;28;20066;-75
2022/08/31 02:57:19;;;;;;;8.35;2.65;;;;;;;;;;5066680;28;20106;-76
2022/08/31 02:59:45;;;;;;;3.20;2.40;;;;;;;;;;5074058;28;20031;-75
2022/08/31 03:02:12;;;;;;;3.45;2.58;;;;;;;;;;5070126;28;20029;-75
2022/08/31 03:04:38;;;;;;;3.58;2.20;;;;;;;;;;5070000;28;20033;-75
2022/08/31 03:07:05;;;;;;;4.28;2.65;;;;;;;;;;5071781;28;20078;-75
2022/08/31 03:09:31;;;;;;;3.92;2.40;;;;;;;;;;5072167;28;20079;-76
2022/08/31 03:11:58;;;;;;;4.75;2.45;;;;;;;;;;5068583;28;20081;-73
2022/08/31 03:14:24;;;;;;;3.30;2.60;;;;;;;;;;5072669;28;20385;-76
2022/08/31 03:16:50;;;;;;;4.70;2.70;;;;;;;;;;5068763;28;20013;-75
2022/08/31 03:19:16;;;;;;;3.28;2.70;;;;;;;;;;5067502;28;20254;-75
2022/08/31 03:21:44;;;;;;;5.03;2.97;;;;;;;;;;5067096;28;20021;-76
2022/08/31 03:24:11;;;;;;;3.40;2.47;;;;;;;;;;5065165;28;20028;-76
2022/08/31 03:26:37;;;;;;;4.90;3.05;;;;;;;;;;5070961;28;20024;-76
2022/08/31 03:29:03;;;;;;;3.00;2.50;;;;;;;;;;5067661;28;20033;-76
2022/08/31 03:31:30;;;;;;;5.07;2.65;;;;;;;;;;5086047;28;20515;-75
2022/08/31 03:33:56;;;;;;;3.90;2.67;;;;;;;;;;5072596;28;20020;-74
2022/08/31 03:36:23;;;;;;;4.18;2.55;;;;;;;;;;5071064;28;20086;-74
2022/08/31 03:38:49;;;;;;;4.13;2.97;;;;;;;;;;5070201;28;20025;-75
2022/08/31 03:41:16;;;;;;;8.02;2.70;;;;;;;;;;5072878;28;20044;-74
2022/08/31 03:43:42;;;;;;;4.65;2.60;;;;;;;;;;5066589;28;20032;-75
2022/08/31 03:46:08;;;;;;;4.43;2.40;;;;;;;;;;5068470;28;20108;-75
2022/08/31 03:48:34;;;;;;;3.90;2.80;;;;;;;;;;5058990;28;20020;-75
2022/08/31 03:51:00;;;;;;;5.47;2.90;;;;;;;;;;5063346;28;20049;-75
2022/08/31 03:53:26;;;;;;;5.55;2.58;;;;;;;;;;5071484;28;20025;-74
2022/08/31 03:56:00;;;;;;;3.85;2.38;;;;;;;;;;5058499;28;20120;-75
2022/08/31 03:58:26;;;;;;;5.20;2.30;;;;;;;;;;5062905;28;20046;-75
2022/08/31 04:00:53;;;;;;;4.00;2.40;;;;;;;;;;5057271;28;20052;-76
2022/08/31 04:03:19;;;;;;;3.72;2.10;;;;;;;;;;5055457;28;20024;-74
2022/08/31 04:05:45;;;;;;;3.78;2.40;;;;;;;;;;5066646;28;20020;-74
2022/08/31 04:08:12;;;;;;;3.40;2.38;;;;;;;;;;5084909;28;20016;-74
2022/08/31 04:10:42;;;;;;;3.20;2.30;;;;;;;;;;5069093;28;20170;-74
2022/08/31 04:13:09;;;;;;;5.30;2.72;;;;;;;;;;5066272;28;20051;-75
2022/08/31 04:15:36;;;;;;;4.80;2.70;;;;;;;;;;5069695;28;20025;-74
2022/08/31 04:18:02;;;;;;;3.35;2.60;;;;;;;;;;5076293;28;20043;-75
2022/08/31 04:20:28;;;;;;;5.80;2.97;;;;;;;;;;5060263;28;20115;-74
2022/08/31 04:22:54;;;;;;;3.10;2.53;;;;;;;;;;5066401;28;20029;-74
2022/08/31 04:25:20;;;;;;;3.20;2.90;;;;;;;;;;5070442;28;20028;-74
2022/08/31 04:27:48;;;;;;;3.42;2.72;;;;;;;;;;5072376;28;20020;-74
2022/08/31 04:30:14;;;;;;;4.07;2.80;;;;;;;;;;5070922;28;20028;-74
2022/08/31 04:32:40;;;;;;;3.15;2.67;;;;;;;;;;5079916;28;20029;-75
2022/08/31 04:35:07;;;;;;;3.70;2.78;;;;;;;;;;5064764;28;20028;-74
2022/08/31 04:37:33;;;;;;;2.78;2.40;;;;;;;;;;5073328;28;20035;-74
2022/08/31 04:40:00;;;;;;;3.10;2.40;;;;;;;;;;5069595;28;20029;-74
2022/08/31 04:42:28;;;;;;;3.63;2.60;;;;;;;;;;5070086;28;20019;-75
2022/08/31 04:44:55;;;;;;;3.53;2.80;;;;;;;;;;5063649;28;20417;-74
2022/08/31 04:47:21;;;;;;;5.50;2.80;;;;;;;;;;5072383;28;20048;-75
2022/08/31 04:49:47;;;;;;;4.35;2.78;;;;;;;;;;5070457;28;20054;-75
2022/08/31 04:52:13;;;;;;;4.00;2.63;;;;;;;;;;5071001;28;20025;-75
2022/08/31 04:54:40;;;;;;;3.85;2.60;;;;;;;;;;5071245;28;20070;-73
2022/08/31 04:57:06;;;;;;;3.35;2.28;;;;;;;;;;5071442;28;20377;-74
2022/08/31 04:59:32;;;;;;;3.47;2.70;;;;;;;;;;5068982;28;20065;-76
2022/08/31 05:01:58;;;;;;;3.15;2.50;;;;;;;;;;5068998;28;20020;-75
2022/08/31 05:04:27;;;;;;;5.00;2.67;;;;;;;;;;5071763;28;20029;-75
2022/08/31 05:07:03;;;;;;;5.78;2.88;;;;;;;;;;5070626;28;20029;-73
2022/08/31 05:09:29;;;;;;;4.20;2.67;;;;;;;;;;5070083;28;20737;-75
2022/08/31 05:11:56;;;;;;;6.63;3.10;;;;;;;;;;5064521;28;20033;-75
2022/08/31 05:14:22;;;;;;;5.00;2.63;;;;;;;;;;5074485;28;20025;-76
2022/08/31 05:16:49;;;;;;;3.50;2.35;;;;;;;;;;5071673;28;20036;-75
2022/08/31 05:19:15;;;;;;;4.10;2.60;;;;;;;;;;5070928;28;20082;-75
2022/08/31 05:21:42;;;;;;;5.07;2.80;;;;;;;;;;5073546;28;20427;-74
2022/08/31 05:24:09;;;;;;;4.47;2.60;;;;;;;;;;5070156;28;20039;-75
2022/08/31 05:26:39;;;;;;;3.20;2.55;;;;;;;;;;5059728;28;20040;-75
2022/08/31 05:29:08;;;;;;;3.20;2.55;;;;;;;;;;5079150;28;20048;-76
2022/08/31 05:31:36;;;;;;;5.32;2.53;;;;;;;;;;5071626;28;20020;-75
2022/08/31 05:34:03;;;;;;;4.35;2.65;;;;;;;;;;5071768;28;20538;-76
2022/08/31 05:36:29;;;;;;;6.18;3.28;;;;;;;;;;5080335;28;20051;-75
2022/08/31 05:38:55;;;;;;;4.57;2.92;;;;;;;;;;5061435;28;20086;-74
2022/08/31 05:41:22;;;;;;;6.95;3.15;;;;;;;;;;5070309;28;20035;-75
2022/08/31 05:43:48;;;;;;;4.13;3.10;;;;;;;;;;5050429;28;20044;-76
2022/08/31 05:46:14;;;;;;;5.63;3.38;;;;;;;;;;5067628;28;20028;-75
2022/08/31 05:48:41;;;;;;;9.95;3.65;;;;;;;;;;5065553;28;20033;-75
2022/08/31 05:51:09;;;;;;;5.25;3.08;;;;;;;;;;5069099;28;20058;-74
2022/08/31 05:53:35;;;;;;;6.03;3.47;;;;;;;;;;5069441;28;20070;-75
2022/08/31 05:56:03;;;;;;;9.40;3.40;;;;;;;;;;5067319;28;20029;-75
2022/08/31 05:58:30;;;;;;;5.03;2.83;;;;;;;;;;5070591;28;20047;-75
2022/08/31 06:00:56;;;;;;;5.35;2.78;;;;;;;;;;5070241;28;20037;-75
2022/08/31 06:03:22;;;;;;;4.32;3.50;;;;;;;;;;5070933;28;20024;-75
2022/08/31 06:05:51;;;;;;;5.68;3.40;;;;;;;;;;5067771;28;20154;-74
2022/08/31 06:08:18;;;;;;;7.07;3.10;;;;;;;;;;5066026;28;20021;-76
2022/08/31 06:10:45;;;;;;;6.28;3.45;;;;;;;;;;5085633;28;20032;-75
2022/08/31 06:13:16;;;;;;;12.07;3.55;;;;;;;;;;5069127;28;20596;-77
2022/08/31 06:15:43;;;;;;;6.35;2.97;;;;;;;;;;5069978;28;20603;-76
2022/08/31 06:18:11;;;;;;;5.13;3.10;;;;;;;;;;5074186;28;20029;-78
2022/08/31 06:20:38;;;;;;;5.90;2.92;;;;;;;;;;5073380;28;20021;-75
2022/08/31 06:23:06;;;;;;;8.07;4.03;;;;;;;;;;5074680;28;20025;-75
2022/08/31 06:25:35;;;;;;;5.53;3.35;;;;;;;;;;5084213;28;20087;-77
2022/08/31 06:28:04;;;;;;;10.73;3.08;;;;;;;;;;5073734;28;20028;-75
2022/08/31 06:30:31;;;;;;;6.07;3.60;;;;;;;;;;5072470;28;20029;-77
2022/08/31 06:32:57;;;;;;;7.22;3.08;;;;;;;;;;5069426;28;20024;-75
2022/08/31 06:35:23;;;;;;;6.68;2.97;;;;;;;;;;5073051;28;20033;-74
2022/08/31 06:37:51;;;;;;;6.82;3.13;;;;;;;;;;5079712;28;20063;-75
2022/08/31 06:40:17;;;;;;;5.80;3.03;;;;;;;;;;5077749;28;20060;-75
2022/08/31 06:42:43;;;;;;;5.88;2.63;;;;;;;;;;5073308;28;20048;-76
2022/08/31 06:45:10;;;;;;;4.28;2.53;;;;;;;;;;5069146;28;20691;-76
2022/08/31 06:47:36;;;;;;;7.88;2.65;;;;;;;;;;5072949;28;20024;-74
2022/08/31 06:50:03;;;;;;;4.65;2.53;;;;;;;;;;5074167;28;20048;-76
2022/08/31 06:52:29;;;;;;;5.03;2.58;;;;;;;;;;5070832;28;20024;-76
2022/08/31 06:54:55;;;;;;;9.30;2.38;;;;;;;;;;5074580;28;20029;-76
2022/08/31 06:57:21;;;;;;;4.07;2.35;;;;;;;;;;5088516;28;20089;-76
2022/08/31 06:59:47;;;;;;;3.45;2.28;;;;;;;;;;5077261;28;20096;-74
2022/08/31 07:02:14;;;;;;;3.78;2.70;;;;;;;;;;5074013;28;20032;-74
2022/08/31 07:04:40;;;;;;;6.00;3.20;;;;;;;;;;5075294;28;20079;-74
2022/08/31 07:07:10;;;;;;;3.65;2.40;;;;;;;;;;5073549;28;20082;-76
2022/08/31 07:09:36;;;;;;;7.30;2.63;;;;;;;;;;5075273;28;20021;-74
2022/08/31 07:12:03;;;;;;;2.60;2.20;;;;;;;;;;5075337;28;20024;-73
2022/08/31 07:14:29;;;;;;;4.97;2.33;;;;;;;;;;5070196;28;20029;-75
2022/08/31 07:16:57;;;;;;;4.28;2.25;;;;;;;;;;5075050;28;20028;-75
2022/08/31 07:19:26;;;;;;;4.38;3.00;;;;;;;;;;5076027;28;20043;-76
2022/08/31 07:21:54;;;;;;;5.72;2.47;;;;;;;;;;5074403;28;20162;-75
2022/08/31 07:24:24;;;;;;;3.53;2.22;;;;;;;;;;5071169;28;20024;-75
2022/08/31 07:26:56;;;;;;;3.25;2.38;;;;;;;;;;5068334;28;20103;-75
2022/08/31 07:29:23;;;;;;;4.35;2.15;;;;;;;;;;5064803;28;20031;-77
2022/08/31 07:31:50;;;;;;;4.60;2.30;;;;;;;;;;5068845;28;20385;-76
2022/08/31 07:34:24;;;;;;;5.60;2.38;;;;;;;;;;5070018;28;20024;-75
2022/08/31 07:42:25;;;;;;;2.97;2.10;;;;;;;;;;5072039;28;20093;-76
2022/08/31 07:44:53;;;;;;;4.97;2.00;;;;;;;;;;5069491;28;20790;-76
2022/08/31 07:47:19;;;;;;;3.85;2.00;;;;;;;;;;5070907;28;20060;-76
2022/08/31 07:49:49;;;;;;;5.13;2.10;;;;;;;;;;5071326;28;20024;-76
2022/08/31 07:52:19;;;;;;;5.50;2.30;;;;;;;;;;5072225;28;20021;-76
2022/08/31 07:54:46;;;;;;;3.08;2.05;;;;;;;;;;5073473;28;20027;-76
2022/08/31 07:57:12;;;;;;;5.18;2.97;;;;;;;;;;5069389;28;20028;-77
2022/08/31 07:59:38;;;;;;;2.78;2.03;;;;;;;;;;5069063;28;20049;-76
2022/08/31 08:02:05;;;;;;;4.70;2.38;;;;;;;;;;5063887;28;20025;-75
2022/08/31 08:04:37;;;;;;;3.50;2.45;;;;;;;;;;5075680;28;20115;-76
2022/08/31 08:07:07;;;;;;;5.22;2.28;;;;;;;;;;5072421;28;20110;-76
2022/08/31 08:09:33;;;;;;;3.78;2.08;;;;;;;;;;5072954;28;20024;-75
2022/08/31 08:12:05;;;;;;;4.50;2.20;;;;;;;;;;5071872;28;20323;-76
2022/08/31 08:14:33;;;;;;;3.03;2.10;;;;;;;;;;5068786;28;20025;-76
2022/08/31 08:16:59;;;;;;;3.78;2.00;;;;;;;;;;5072870;28;20031;-77
2022/08/31 08:19:26;;;;;;;3.50;2.00;;;;;;;;;;5072782;28;20039;-76
2022/08/31 08:21:52;;;;;;;3.67;2.33;;;;;;;;;;5070571;28;20029;-75
2022/08/31 08:24:18;;;;;;;3.17;2.20;;;;;;;;;;5072901;28;20025;-76
2022/08/31 08:26:45;;;;;;;1.85;1.70;;;;;;;;;;5067342;28;20112;-76
2022/08/31 08:29:12;;;;;;;3.92;2.22;;;;;;;;;;5070541;28;20557;-74
2022/08/31 08:31:38;;;;;;;3.38;2.03;;;;;;;;;;5064385;28;20048;-75
2022/08/31 08:34:04;;;;;;;2.33;1.90;;;;;;;;;;5069449;28;20028;-74
2022/08/31 08:36:34;;;;;;;3.65;1.90;;;;;;;;;;5071114;28;20024;-74
2022/08/31 08:39:01;;;;;;;2.65;1.90;;;;;;;;;;5069607;28;20013;-75
2022/08/31 08:41:28;;;;;;;2.85;1.88;;;;;;;;;;5063830;28;20107;-73
2022/08/31 08:43:59;;;;;;;4.95;2.03;;;;;;;;;;5060843;28;20531;-75
2022/08/31 08:46:31;;;;;;;3.50;2.35;;;;;;;;;;5070618;28;20511;-76
2022/08/31 08:48:59;;;;;;;2.63;2.00;;;;;;;;;;5069770;28;20033;-75
2022/08/31 08:51:31;;;;;;;3.58;1.90;;;;;;;;;;5069243;28;20071;-75
2022/08/31 08:53:59;;;;;;;3.20;2.15;;;;;;;;;;5070198;28;20040;-74
2022/08/31 08:56:25;;;;;;;5.72;2.08;;;;;;;;;;5072288;28;20025;-75
2022/08/31 08:58:51;;;;;;;2.20;1.90;;;;;;;;;;5082499;28;20066;-75
2022/08/31 09:01:26;;;;;;;2.20;1.83;;;;;;;;;;5069341;28;20037;-74
2022/08/31 09:04:15;;;;;;;2.75;1.90;;;;;;;;;;5084659;28;20029;-75
2022/08/31 09:07:01;;;;;;;2.88;2.15;;;;;;;;;;5071673;28;20020;-75
2022/08/31 09:09:39;;;;;;;6.13;2.00;;;;;;;;;;5063326;28;20070;-74
2022/08/31 09:12:06;;;;;;;2.33;1.90;;;;;;;;;;5064160;28;20032;-74
2022/08/31 09:14:46;;;;;;;3.10;2.10;;;;;;;;;;5069319;28;20187;-76
2022/08/31 09:17:33;;;;;;;3.65;2.92;;;;;;;;;;5062873;28;20033;-74
2022/08/31 09:20:05;;;;;;;2.83;1.90;;;;;;;;;;5062885;28;20036;-83
2022/08/31 09:22:32;;;;;;;5.68;2.25;;;;;;;;;;5074177;28;20029;-74
2022/08/31 09:24:59;;;;;;;3.35;2.05;;;;;;;;;;5069461;28;20124;-75
2022/08/31 09:27:37;;;;;;;2.70;1.80;;;;;;;;;;5071297;28;20079;-75
2022/08/31 09:30:05;;;;;;;3.45;1.90;;;;;;;;;;5068017;28;20034;-76
2022/08/31 09:32:33;;;;;;;2.00;1.60;;;;;;;;;;5071116;28;20058;-76
2022/08/31 09:35:01;;;;;;;2.35;1.70;;;;;;;;;;5067909;28;20481;-76
2022/08/31 09:37:32;;;;;;;2.85;1.60;;;;;;;;;;5068265;28;20017;-75
2022/08/31 09:40:13;;;;;;;3.33;2.00;;;;;;;;;;5064635;28;20024;-75
2022/08/31 09:42:39;;;;;;;3.13;2.15;;;;;;;;;;5079390;28;20035;-75
2022/08/31 09:45:08;;;;;;;3.60;1.90;;;;;;;;;;5061209;28;20135;-75
2022/08/31 09:47:50;;;;;;;3.90;1.70;;;;;;;;;;5064385;28;20544;-75
2022/08/31 09:50:35;;;;;;;2.25;1.85;;;;;;;;;;5063624;28;20056;-76
2022/08/31 09:56:12;;;;;;;3.42;1.80;;;;;;;;;;5068441;28;20093;-74
2022/08/31 09:58:42;;;;;;;3.03;2.05;;;;;;;;;;5054354;28;20032;-75
2022/08/31 10:01:12;;;;;;;2.35;2.15;;;;;;;;;;5083145;28;20814;-76
2022/08/31 10:03:43;;;;;;;3.08;1.80;;;;;;;;;;5074636;28;20408;-76
2022/08/31 10:06:36;;;;;;;2.53;1.90;;;;;;;;;;5069919;28;20020;-78
2022/08/31 10:09:07;;;;;;;2.65;1.90;;;;;;;;;;5061719;28;20032;-76
2022/08/31 10:11:34;;;;;;;4.40;1.92;;;;;;;;;;5071852;28;20098;-77
2022/08/31 10:14:03;;;;;;;4.28;1.83;;;;;;;;;;5069994;28;20111;-74
2022/08/31 10:16:37;;;;;;;3.17;1.83;;;;;;;;;;5068898;28;20024;-75
2022/08/31 10:19:03;;;;;;;3.73;2.40;;;;;;;;;;5068842;28;20040;-75
2022/08/31 10:21:42;;;;;;;3.38;2.08;;;;;;;;;;5060587;28;20029;-74
2022/08/31 10:24:19;;;;;;;2.60;2.00;;;;;;;;;;5070953;28;20025;-75
2022/08/31 10:26:48;;;;;;;2.95;1.88;;;;;;;;;;5068921;28;20028;-75
2022/08/31 10:29:19;;;;;;;3.15;1.80;;;;;;;;;;5073256;28;20362;-77
2022/08/31 10:31:50;;;;;;;2.30;1.90;;;;;;;;;;5070549;28;20361;-75
2022/08/31 10:37:23;;;;;;;4.60;2.80;;;;;;;;;;5068580;28;20031;-77
2022/08/31 10:39:58;;;;;;;2.85;2.03;;;;;;;;;;5056761;28;20025;-75
2022/08/31 10:42:28;;;;;;;1.98;1.77;;;;;;;;;;5070154;28;20025;-74
2022/08/31 10:45:06;;;;;;;4.97;1.90;;;;;;;;;;5072177;28;20716;-76
2022/08/31 10:47:40;;;;;;;2.15;1.95;;;;;;;;;;5071461;28;20082;-75
2022/08/31 10:50:06;;;;;;;3.08;1.73;;;;;;;;;;5074280;28;20056;-75
2022/08/31 10:52:45;;;;;;;2.70;1.83;;;;;;;;;;5070703;28;20346;-75
2022/08/31 10:55:32;;;;;;;2.80;1.70;;;;;;;;;;5069536;28;20032;-76
2022/08/31 10:57:58;;;;;;;3.45;2.13;;;;;;;;;;5070074;28;20070;-76
2022/08/31 11:00:45;;;;;;;2.05;1.85;;;;;;;;;;5069999;28;20064;-77
2022/08/31 11:03:11;;;;;;;2.78;1.67;;;;;;;;;;5074885;28;20040;-77
2022/08/31 11:05:56;;;;;;;2.78;1.75;;;;;;;;;;5070971;28;20013;-76
2022/08/31 11:08:28;;;;;;;3.97;2.10;;;;;;;;;;5072791;28;20046;-75
2022/08/31 11:10:55;;;;;;;3.33;1.90;;;;;;;;;;5062488;28;20024;-75
2022/08/31 11:13:30;;;;;;;2.72;2.20;;;;;;;;;;5070462;28;20417;-76
2022/08/31 11:15:59;;;;;;;3.13;1.92;;;;;;;;;;5084948;28;20020;-75
2022/08/31 11:18:40;;;;;;;1.80;1.70;;;;;;;;;;5068536;28;20504;-75
2022/08/31 11:21:22;;;;;;;3.72;1.80;;;;;;;;;;5058695;28;20048;-76
2022/08/31 11:23:49;;;;;;;2.72;1.70;;;;;;;;;;5069933;28;20502;-76
2022/08/31 11:26:34;;;;;;;2.50;1.80;;;;;;;;;;5064404;28;20032;-75
2022/08/31 11:29:04;;;;;;;3.13;1.95;;;;;;;;;;5067098;28;20474;-76
2022/08/31 11:31:32;;;;;;;4.50;1.90;;;;;;;;;;5071288;28;20104;-75
2022/08/31 11:34:07;;;;;;;2.83;1.70;;;;;;;;;;5071953;28;20025;-77
2022/08/31 11:36:52;;;;;;;2.35;1.80;;;;;;;;;;5065123;28;20438;-76
2022/08/31 11:39:18;;;;;;;3.72;1.90;;;;;;;;;;5071525;28;20085;-74
2022/08/31 11:41:45;;;;;;;1.90;1.80;;;;;;;;;;5070895;28;20043;-76
2022/08/31 11:44:30;;;;;;;2.92;2.03;;;;;;;;;;5067002;28;20070;-81
2022/08/31 11:47:03;;;;;;;4.57;2.00;;;;;;;;;;5067778;28;20024;-76
2022/08/31 11:49:42;;;;;;;4.00;2.10;;;;;;;;;;5063145;28;20416;-75
2022/08/31 11:52:23;;;;;;;3.50;2.00;;;;;;;;;;5071178;28;20058;-75
2022/08/31 11:54:49;;;;;;;2.15;1.80;;;;;;;;;;5071356;28;20047;-75
2022/08/31 11:57:23;;;;;;;2.13;1.70;;;;;;;;;;5073741;28;20537;-76
2022/08/31 11:59:50;;;;;;;4.03;2.35;;;;;;;;;;5086210;28;20035;-76
2022/08/31 12:02:21;;;;;;;2.30;1.80;;;;;;;;;;5073278;28;20121;-76
2022/08/31 12:04:51;;;;;;;3.72;1.92;;;;;;;;;;5069390;28;20032;-75
2022/08/31 12:07:25;;;;;;;4.68;2.42;;;;;;;;;;5074469;28;20100;-77
2022/08/31 12:09:51;;;;;;;3.20;2.00;;;;;;;;;;5072950;28;20024;-76
2022/08/31 12:12:29;;;;;;;3.00;1.80;;;;;;;;;;5063766;28;20472;-76
2022/08/31 12:14:56;;;;;;;2.35;2.00;;;;;;;;;;5072311;28;20162;-76
2022/08/31 12:17:30;;;;;;;3.17;2.03;;;;;;;;;;5073601;28;20021;-76
2022/08/31 12:20:06;;;;;;;6.13;2.40;;;;;;;;;;5071342;28;20036;-76
2022/08/31 12:26:04;;;;;;;2.22;2.00;;;;;;;;;;5061359;28;20058;-76
2022/08/31 12:28:30;;;;;;;3.42;2.10;;;;;;;;;;5065171;28;20449;-76
2022/08/31 12:30:57;;;;;;;3.97;2.00;;;;;;;;;;5076206;28;20040;-77
2022/08/31 12:33:27;;;;;;;3.85;1.92;;;;;;;;;;5070397;28;20465;-76
2022/08/31 12:35:56;;;;;;;2.55;1.95;;;;;;;;;;5066606;28;20052;-76
2022/08/31 12:38:25;;;;;;;2.95;2.03;;;;;;;;;;5071449;28;20865;-76
2022/08/31 12:40:55;;;;;;;2.20;2.00;;;;;;;;;;5057377;28;20031;-76
2022/08/31 12:43:21;;;;;;;2.00;1.80;;;;;;;;;;5080187;28;20489;-77
2022/08/31 12:45:50;;;;;;;2.85;1.90;;;;;;;;;;5070952;28;20043;-77
2022/08/31 12:48:27;;;;;;;3.03;1.92;;;;;;;;;;5070377;28;20407;-77
2022/08/31 12:51:01;;;;;;;4.07;2.05;;;;;;;;;;5066887;28;20053;-76
2022/08/31 12:53:42;;;;;;;4.17;1.90;;;;;;;;;;5067636;28;20029;-77
2022/08/31 12:56:16;;;;;;;5.13;2.13;;;;;;;;;;5071149;28;20263;-77
2022/08/31 12:58:57;;;;;;;4.15;1.98;;;;;;;;;;5072903;28;20222;-77
2022/08/31 13:01:25;;;;;;;2.00;1.75;;;;;;;;;;5085502;28;20055;-77
2022/08/31 13:03:56;;;;;;;2.67;1.75;;;;;;;;;;5071255;28;20036;-77
2022/08/31 13:06:23;;;;;;;2.85;1.90;;;;;;;;;;5069386;28;20063;-77
2022/08/31 13:08:50;;;;;;;2.00;1.80;;;;;;;;;;5071032;28;20036;-76
2022/08/31 13:11:22;;;;;;;3.42;2.08;;;;;;;;;;5069872;28;20124;-77
2022/08/31 13:13:48;;;;;;;3.38;1.85;;;;;;;;;;5059806;28;20033;-77
2022/08/31 13:16:14;;;;;;;2.90;1.90;;;;;;;;;;5062687;28;20017;-76
2022/08/31 13:18:41;;;;;;;2.97;2.10;;;;;;;;;;5073039;28;20090;-76
2022/08/31 13:21:07;;;;;;;3.58;2.05;;;;;;;;;;5071452;28;20117;-77
2022/08/31 13:23:43;;;;;;;3.78;2.10;;;;;;;;;;5069254;28;20081;-78
2022/08/31 13:26:24;;;;;;;2.58;1.90;;;;;;;;;;5075523;28;20504;-76
2022/08/31 13:28:52;;;;;;;5.20;2.05;;;;;;;;;;5066754;28;20400;-77
2022/08/31 13:31:21;;;;;;;3.25;2.00;;;;;;;;;;5075986;28;20103;-77
2022/08/31 13:33:48;;;;;;;3.58;2.20;;;;;;;;;;5065248;28;20045;-76
2022/08/31 13:36:30;;;;;;;4.85;2.13;;;;;;;;;;5076198;28;20016;-77
2022/08/31 13:38:57;;;;;;;3.45;2.15;;;;;;;;;;5070735;28;20465;-77
2022/08/31 13:41:28;;;;;;;3.85;2.38;;;;;;;;;;5071943;28;20078;-77
2022/08/31 13:44:04;;;;;;;4.10;2.47;;;;;;;;;;5075080;28;20111;-76
2022/08/31 13:46:42;;;;;;;5.05;2.05;;;;;;;;;;5068477;28;20107;-77
2022/08/31 13:49:19;;;;;;;3.15;1.98;;;;;;;;;;5077866;28;20024;-77
2022/08/31 13:51:46;;;;;;;2.90;1.90;;;;;;;;;;5074773;28;20090;-77
2022/08/31 13:54:25;;;;;;;2.70;1.80;;;;;;;;;;5072428;28;20040;-77
2022/08/31 13:56:54;;;;;;;3.42;2.20;;;;;;;;;;5071166;28;20416;-77
2022/08/31 13:59:23;;;;;;;2.50;2.10;;;;;;;;;;5071550;28;20090;-77
2022/08/31 14:01:51;;;;;;;3.53;1.80;;;;;;;;;;5071569;28;20653;-78
2022/08/31 14:04:42;;;;;;;5.70;2.53;;;;;;;;;;5075393;28;20047;-76
2022/08/31 14:07:13;;;;;;;2.92;1.92;;;;;;;;;;5070404;28;20024;-77
2022/08/31 14:09:43;;;;;;;4.38;2.47;;;;;;;;;;5075296;28;20027;-75
2022/08/31 14:12:10;;;;;;;5.55;2.25;;;;;;;;;;5071686;28;20484;-75
2022/08/31 14:14:40;;;;;;;3.17;2.15;;;;;;;;;;5070121;28;20104;-76
2022/08/31 14:17:08;;;;;;;2.80;2.00;;;;;;;;;;5075130;28;20111;-77
2022/08/31 14:19:37;;;;;;;3.53;2.20;;;;;;;;;;5075579;28;20043;-75
2022/08/31 14:22:27;;;;;;;2.53;1.80;;;;;;;;;;5069392;28;20036;-76
2022/08/31 14:24:54;;;;;;;10.55;4.95;;;;;;;;;;5080668;28;20017;-75
2022/08/31 14:27:21;;;;;;;3.20;2.30;;;;;;;;;;5071924;28;20318;-75
2022/08/31 14:29:47;;;;;;;2.95;2.30;;;;;;;;;;5073783;28;20124;-78
2022/08/31 14:32:13;;;;;;;5.60;2.40;;;;;;;;;;5070441;28;20021;-75
2022/08/31 14:34:45;;;;;;;3.35;1.88;;;;;;;;;;5073510;28;20013;-75
2022/08/31 14:37:18;;;;;;;2.40;2.20;;;;;;;;;;5071443;28;20024;-76
2022/08/31 14:40:03;;;;;;;2.85;2.15;;;;;;;;;;5069321;28;20120;-76
2022/08/31 14:42:35;;;;;;;2.30;2.10;;;;;;;;;;5087047;28;20552;-76
2022/08/31 14:45:05;;;;;;;3.72;2.47;;;;;;;;;;5069512;28;20036;-77
2022/08/31 14:47:37;;;;;;;2.30;2.10;;;;;;;;;;5065834;28;20028;-80
2022/08/31 14:50:07;;;;;;;2.80;1.90;;;;;;;;;;5073489;28;20127;-76
2022/08/31 14:52:37;;;;;;;3.08;1.90;;;;;;;;;;5074648;28;20472;-75
2022/08/31 14:55:07;;;;;;;2.83;2.30;;;;;;;;;;5062179;28;20021;-77
2022/08/31 14:57:34;;;;;;;4.00;2.20;;;;;;;;;;5073364;28;20012;-75
2022/08/31 15:00:01;;;;;;;3.58;2.30;;;;;;;;;;5066280;28;20560;-76
2022/08/31 15:02:32;;;;;;;3.55;2.00;;;;;;;;;;5060714;28;20028;-76
2022/08/31 15:05:04;;;;;;;2.58;2.00;;;;;;;;;;5066210;28;20035;-77
2022/08/31 15:07:32;;;;;;;4.40;2.20;;;;;;;;;;5080261;28;20093;-76
2022/08/31 15:09:59;;;;;;;2.50;2.00;;;;;;;;;;5069073;28;20028;-76
2022/08/31 15:12:25;;;;;;;2.72;2.08;;;;;;;;;;5069367;28;20033;-75
2022/08/31 15:14:58;;;;;;;4.63;2.20;;;;;;;;;;5072915;28;20020;-76